LiveATC.Net - Listen to live air traffic control over the Internet!

ICAO: USCC  IATA: CEK   Airport: Chelyabinsk Airport
City: Chelyabinsk
Country: Russia   Continent: Asia
USCC METAR Weather: USCC 240100Z 27004MPS 5000 BR NSC M14/M15 Q1003 R27/000060 TEMPO 1200 BR FU VV004 RMK QFE732
USCC Flight Activity (FlightAware)
USCC Twr/App/Control
Feed Status: UP   Listeners: 0
Listen right in your browser - requires Flash (in browser, requires Flash)
Click here to listen with your own player (launches your MP3 player)
USCC Twr/App/Control Audio Archives
Airfield Services163.380
Airfield Services163.500
Airfield Services163.950
Airfield Services164.150
Chelyabinsk Approach124.700
Chelyabinsk Control (North)125.400
Chelyabinsk Control (South)125.500
Chelyabinsk Tower125.200
Chelyabinsk Transit131.600


Unauthorized use prohibited. See Terms of Service

Find LiveATC Audio Streams

Airport/ARTCC Code

Frequency Search
(e.g., 124.400, 128.75)
Site-wide search

Browse LiveATC Feeds
LiveATC Coverage Map
Top 50 LiveATC Feeds
Bad Weather Areas

Offer a LiveATC Feed
Press Inquiries

LiveATC on iPhone
LiveATC on Android

Windows Phone
Windows 8/10

LiveATC Mobile
(Mobile browser)

ATC Audio Archives
Interesting Recordings

LiveATC Forums

Home Page
Make a Donation
Terms of Use
Privacy Policy

Canadian Air Freqs


FAA Airport Status
Nat'l Airspace Status
Arrival Demand Charts

Server Software By: